createdAt,value
2022-08-17T00:00:16.575Z,21.09
2022-08-17T00:03:01.281Z,21.07
2022-08-17T00:05:32.192Z,21.07
2022-08-17T00:07:59.621Z,20.90
2022-08-17T00:10:27.065Z,21.01
2022-08-17T00:12:54.214Z,20.97
2022-08-17T00:15:22.913Z,20.91
2022-08-17T00:17:51.547Z,20.90
2022-08-17T00:20:19.346Z,20.66
2022-08-17T00:22:50.474Z,20.86
2022-08-17T00:25:30.926Z,20.77
2022-08-17T00:27:58.116Z,20.86
2022-08-17T00:30:25.134Z,20.71
2022-08-17T00:33:22.893Z,20.62
2022-08-17T00:35:40.661Z,20.61
2022-08-17T00:38:08.387Z,20.70
2022-08-17T00:40:44.607Z,20.59
2022-08-17T00:43:36.559Z,20.69
2022-08-17T00:46:13.880Z,20.56
2022-08-17T00:48:42.051Z,20.63
2022-08-17T00:51:20.605Z,20.56
2022-08-17T00:53:57.954Z,20.61
2022-08-17T00:56:30.390Z,20.56
2022-08-17T00:58:58.011Z,20.40
2022-08-17T01:01:25.507Z,20.62
2022-08-17T01:03:55.626Z,20.56
2022-08-17T01:06:28.393Z,20.61
2022-08-17T01:08:57.922Z,20.45
2022-08-17T01:11:25.945Z,20.50
2022-08-17T01:13:52.861Z,20.57
2022-08-17T01:16:29.218Z,20.39
2022-08-17T01:19:00.371Z,20.34
2022-08-17T01:21:45.821Z,20.28
2022-08-17T01:24:12.761Z,20.44
2022-08-17T01:26:41.430Z,20.48
2022-08-17T01:29:09.378Z,20.55
2022-08-17T01:31:41.267Z,20.47
2022-08-17T01:34:10.702Z,20.48
2022-08-17T01:36:40.521Z,20.66
2022-08-17T01:39:11.997Z,20.72
2022-08-17T01:41:40.900Z,20.75
2022-08-17T01:44:11.562Z,20.70
2022-08-17T01:46:38.598Z,20.71
2022-08-17T01:49:09.489Z,20.69
2022-08-17T01:51:37.331Z,20.77
2022-08-17T01:54:08.569Z,20.89
2022-08-17T01:56:54.110Z,20.87
2022-08-17T01:59:21.343Z,20.76
2022-08-17T02:01:48.401Z,20.81
2022-08-17T02:04:15.671Z,20.74
2022-08-17T02:06:53.638Z,20.82
2022-08-17T02:09:29.796Z,20.90
2022-08-17T02:11:59.342Z,20.93
2022-08-17T02:14:26.279Z,20.95
2022-08-17T02:16:53.866Z,20.92
2022-08-17T02:19:20.896Z,20.92
2022-08-17T02:21:50.408Z,21.04
2022-08-17T02:24:58.570Z,20.92
2022-08-17T02:27:13.596Z,20.93
2022-08-17T02:29:40.449Z,20.91
2022-08-17T02:32:28.243Z,20.99
2022-08-17T02:34:57.435Z,21.03
2022-08-17T02:37:25.721Z,20.89
2022-08-17T02:39:52.750Z,21.03
2022-08-17T02:42:30.508Z,20.98
2022-08-17T02:44:57.685Z,20.99
2022-08-17T02:47:25.310Z,20.94
2022-08-17T02:49:55.499Z,21.10
2022-08-17T02:52:42.506Z,21.02
2022-08-17T02:55:17.936Z,21.08
2022-08-17T02:57:45.346Z,21.16
2022-08-17T03:00:16.956Z,21.00
2022-08-17T03:02:45.571Z,21.22
2022-08-17T03:05:15.960Z,21.25
2022-08-17T03:07:43.001Z,21.22
2022-08-17T03:10:11.179Z,21.21
2022-08-17T03:12:40.248Z,21.34
2022-08-17T03:15:10.710Z,21.34
2022-08-17T03:17:37.811Z,21.44
2022-08-17T03:20:06.339Z,21.58
2022-08-17T03:22:41.448Z,21.26
2022-08-17T03:25:19.589Z,21.53
2022-08-17T03:27:51.442Z,21.53
2022-08-17T03:30:18.434Z,21.47
2022-08-17T03:32:50.016Z,21.57
2022-08-17T03:35:20.241Z,21.70
2022-08-17T03:37:56.983Z,21.79
2022-08-17T03:40:55.038Z,21.83
2022-08-17T03:43:15.684Z,21.79
2022-08-17T03:45:43.253Z,21.85
2022-08-17T03:48:11.099Z,21.74
2022-08-17T03:50:37.992Z,21.92
2022-08-17T03:53:10.544Z,21.93
2022-08-17T03:55:38.729Z,22.06
2022-08-17T03:58:05.588Z,22.04
2022-08-17T04:00:32.466Z,22.10
2022-08-17T04:02:59.326Z,22.09
2022-08-17T04:05:26.275Z,22.23
2022-08-17T04:07:53.063Z,22.32
2022-08-17T04:10:22.714Z,22.15
2022-08-17T04:12:54.982Z,22.22
2022-08-17T04:15:22.480Z,22.40
2022-08-17T04:17:49.341Z,22.37
2022-08-17T04:20:19.126Z,22.43
2022-08-17T04:23:17.124Z,22.49
2022-08-17T04:25:47.750Z,22.40
2022-08-17T04:28:16.074Z,22.44
2022-08-17T04:30:44.560Z,22.40
2022-08-17T04:33:14.997Z,22.48
2022-08-17T04:35:45.956Z,22.73
2022-08-17T04:38:16.060Z,22.53
2022-08-17T04:40:44.149Z,22.91
2022-08-17T04:43:12.723Z,22.94
2022-08-17T04:46:00.580Z,23.14
2022-08-17T04:48:37.083Z,22.93
2022-08-17T04:51:11.149Z,22.95
2022-08-17T04:53:40.898Z,23.07
2022-08-17T04:56:16.033Z,23.11
2022-08-17T04:58:53.439Z,22.95
2022-08-17T05:01:23.769Z,22.80
2022-08-17T05:03:58.674Z,22.84
2022-08-17T05:06:27.616Z,22.93
2022-08-17T05:08:55.657Z,23.10
2022-08-17T05:11:24.592Z,22.81
2022-08-17T05:13:51.612Z,23.24
2022-08-17T05:16:20.195Z,23.26
2022-08-17T05:18:47.278Z,23.18
2022-08-17T05:21:18.131Z,23.03
2022-08-17T05:23:47.161Z,22.96
2022-08-17T05:26:26.973Z,22.68
2022-08-17T05:29:02.505Z,22.66
2022-08-17T05:31:42.773Z,22.97
2022-08-17T05:34:09.608Z,23.03
2022-08-17T05:36:43.191Z,23.09
2022-08-17T05:39:15.896Z,23.05
2022-08-17T05:41:46.065Z,23.12
2022-08-17T05:44:12.841Z,23.32
2022-08-17T05:46:43.738Z,23.54
2022-08-17T05:49:14.195Z,23.52
2022-08-17T05:52:00.004Z,23.67
2022-08-17T05:54:46.393Z,23.45
2022-08-17T05:57:22.185Z,23.20
2022-08-17T06:00:30.158Z,23.23
2022-08-17T06:03:15.441Z,22.99
2022-08-17T06:05:54.454Z,23.22
2022-08-17T06:08:39.754Z,23.22
2022-08-17T06:11:28.420Z,23.12
2022-08-17T06:14:32.990Z,22.95
2022-08-17T06:17:06.261Z,22.92
2022-08-17T06:19:40.013Z,23.13
2022-08-17T06:22:11.097Z,22.71
2022-08-17T06:24:48.514Z,22.70
2022-08-17T06:27:47.522Z,22.79
2022-08-17T06:30:27.222Z,22.73
2022-08-17T06:33:19.341Z,22.93
2022-08-17T06:35:56.676Z,22.78
2022-08-17T06:38:49.797Z,22.81
2022-08-17T06:41:39.607Z,22.85
2022-08-17T06:44:12.927Z,23.16
2022-08-17T06:47:11.047Z,23.36
2022-08-17T06:49:55.252Z,23.88
2022-08-17T06:52:45.933Z,24.22
2022-08-17T06:55:37.302Z,24.34
2022-08-17T06:58:16.165Z,24.48
2022-08-17T07:00:47.675Z,24.33
2022-08-17T07:04:00.445Z,24.75
2022-08-17T07:06:40.786Z,24.26
2022-08-17T07:09:48.783Z,24.10
2022-08-17T07:12:21.715Z,24.55
2022-08-17T07:15:03.696Z,24.51
2022-08-17T07:17:47.869Z,24.64
2022-08-17T07:20:20.395Z,24.63
2022-08-17T07:23:05.213Z,24.47
2022-08-17T07:25:32.563Z,24.39
2022-08-17T07:28:03.175Z,24.44
2022-08-17T07:30:44.616Z,24.36
2022-08-17T07:33:34.707Z,24.56
2022-08-17T07:36:01.668Z,24.27
2022-08-17T07:38:31.264Z,24.32
2022-08-17T07:40:58.273Z,24.32
2022-08-17T07:43:47.834Z,24.12
2022-08-17T07:46:18.929Z,24.06
2022-08-17T07:48:53.211Z,24.11
2022-08-17T07:51:24.973Z,24.12
2022-08-17T07:53:53.885Z,24.01
2022-08-17T07:56:50.198Z,23.87
2022-08-17T07:59:23.757Z,23.50
2022-08-17T08:01:57.722Z,23.61
2022-08-17T08:07:19.938Z,23.41
2022-08-17T08:09:59.734Z,23.22
2022-08-17T08:12:40.529Z,23.08
2022-08-17T08:15:13.261Z,23.01
2022-08-17T08:18:00.836Z,23.26
2022-08-17T08:20:53.007Z,23.22
2022-08-17T08:23:29.023Z,23.22
2022-08-17T08:26:18.617Z,23.04
2022-08-17T08:29:10.395Z,23.05
2022-08-17T08:31:55.268Z,23.00
2022-08-17T08:34:44.618Z,23.17
2022-08-17T08:37:44.320Z,22.87
2022-08-17T08:40:32.867Z,22.97
2022-08-17T08:43:05.592Z,22.84
2022-08-17T08:45:52.634Z,22.57
2022-08-17T08:48:56.855Z,22.85
2022-08-17T08:51:51.638Z,22.85
2022-08-17T08:54:52.207Z,23.05
2022-08-17T08:57:32.658Z,22.73
2022-08-17T09:00:17.630Z,23.10
2022-08-17T09:03:28.637Z,23.26
2022-08-17T09:06:33.527Z,23.27
2022-08-17T09:09:34.692Z,23.56
2022-08-17T09:12:31.936Z,23.98
2022-08-17T09:15:12.355Z,24.00
2022-08-17T09:17:47.473Z,24.03
2022-08-17T09:20:53.350Z,24.31
2022-08-17T09:23:41.938Z,24.53
2022-08-17T09:26:25.529Z,24.38
2022-08-17T09:28:56.901Z,24.27
2022-08-17T09:31:49.810Z,24.69
2022-08-17T09:34:29.601Z,24.70
2022-08-17T09:37:27.994Z,24.86
2022-08-17T09:40:07.977Z,24.58
2022-08-17T09:43:04.819Z,24.66
2022-08-17T09:45:42.695Z,25.02
2022-08-17T09:48:25.747Z,25.07
2022-08-17T09:51:09.023Z,25.02
2022-08-17T09:53:38.179Z,24.97
2022-08-17T09:56:33.422Z,25.36
2022-08-17T09:59:37.096Z,25.55
2022-08-17T10:02:43.112Z,25.28
2022-08-17T10:05:32.732Z,25.58
2022-08-17T10:08:13.901Z,25.62
2022-08-17T10:11:08.713Z,25.81
2022-08-17T10:13:53.492Z,25.82
2022-08-17T10:16:32.854Z,26.01
2022-08-17T10:19:23.205Z,26.14
2022-08-17T10:22:01.222Z,26.21
2022-08-17T10:25:21.068Z,25.98
2022-08-17T10:27:51.486Z,26.55
2022-08-17T10:30:45.350Z,26.20
2022-08-17T10:33:40.784Z,26.28
2022-08-17T10:36:17.348Z,26.39
2022-08-17T10:38:47.921Z,26.14
2022-08-17T10:41:33.890Z,26.14
2022-08-17T10:44:39.723Z,26.31
2022-08-17T10:47:12.176Z,26.42
2022-08-17T10:49:42.522Z,26.25
2022-08-17T10:52:25.125Z,26.26
2022-08-17T10:54:54.900Z,26.06
2022-08-17T10:57:31.674Z,26.05
2022-08-17T11:00:01.292Z,26.11
2022-08-17T11:02:40.010Z,26.20
2022-08-17T11:05:26.129Z,26.15
2022-08-17T11:08:23.201Z,26.12
2022-08-17T11:11:19.477Z,25.80
2022-08-17T11:14:31.228Z,25.92
2022-08-17T11:17:25.151Z,25.58
2022-08-17T11:20:24.389Z,25.65
2022-08-17T11:23:32.981Z,25.36
2022-08-17T11:26:03.336Z,25.51
2022-08-17T11:28:34.173Z,25.37
2022-08-17T11:31:23.585Z,25.22
2022-08-17T11:34:22.546Z,25.39
2022-08-17T11:37:07.068Z,25.18
2022-08-17T11:39:43.431Z,25.39
2022-08-17T11:42:16.516Z,25.42
2022-08-17T11:45:06.312Z,25.17
2022-08-17T11:48:16.426Z,25.26
2022-08-17T11:51:09.893Z,25.15
2022-08-17T11:53:43.004Z,25.35
2022-08-17T11:56:29.918Z,25.47
2022-08-17T11:58:56.957Z,25.18
2022-08-17T12:01:23.743Z,25.23
2022-08-17T12:04:13.891Z,25.33
2022-08-17T12:06:53.164Z,25.25
2022-08-17T12:09:32.476Z,25.18
2022-08-17T12:12:14.451Z,25.03
2022-08-17T12:15:11.136Z,24.90
2022-08-17T12:17:41.550Z,24.91
2022-08-17T12:20:19.694Z,24.88
2022-08-17T12:23:08.232Z,24.88
2022-08-17T12:25:46.178Z,25.03
2022-08-17T12:28:27.096Z,24.99
2022-08-17T12:31:01.437Z,24.73
2022-08-17T12:33:29.076Z,24.64
2022-08-17T12:36:03.091Z,24.79
2022-08-17T12:38:35.771Z,24.73
2022-08-17T12:41:06.803Z,24.83
2022-08-17T12:43:33.745Z,24.65
2022-08-17T12:46:17.590Z,24.95
2022-08-17T12:48:59.168Z,24.74
2022-08-17T12:51:27.738Z,24.67
2022-08-17T12:53:55.424Z,24.53
2022-08-17T12:56:22.573Z,24.47
2022-08-17T12:58:52.255Z,24.48
2022-08-17T13:01:19.705Z,24.47
2022-08-17T13:03:57.435Z,24.48
2022-08-17T13:06:31.734Z,24.38
2022-08-17T13:09:11.829Z,24.37
2022-08-17T13:11:52.306Z,24.24
2022-08-17T13:14:19.851Z,24.34
2022-08-17T13:16:54.521Z,24.51
2022-08-17T13:19:39.979Z,24.49
2022-08-17T13:22:12.104Z,24.66
2022-08-17T13:24:51.446Z,24.58
2022-08-17T13:27:22.768Z,24.54
2022-08-17T13:29:53.473Z,24.60
2022-08-17T13:32:34.422Z,24.63
2022-08-17T13:35:14.282Z,24.69
2022-08-17T13:37:58.829Z,24.79
2022-08-17T13:40:30.097Z,24.77
2022-08-17T13:42:57.079Z,24.67
2022-08-17T13:45:36.924Z,24.82
2022-08-17T13:48:11.938Z,24.69
2022-08-17T13:50:43.772Z,24.73
2022-08-17T13:53:25.661Z,24.90
2022-08-17T13:55:56.537Z,24.84
2022-08-17T13:58:28.967Z,24.87
2022-08-17T14:00:56.252Z,24.93
2022-08-17T14:03:24.195Z,24.87
2022-08-17T14:05:52.416Z,24.98
2022-08-17T14:08:20.766Z,25.02
2022-08-17T14:10:58.512Z,25.14
2022-08-17T14:13:28.621Z,24.87
2022-08-17T14:15:57.955Z,24.95
2022-08-17T14:18:55.263Z,24.79
2022-08-17T14:21:12.013Z,24.91
2022-08-17T14:23:41.120Z,24.97
2022-08-17T14:26:33.365Z,24.83
2022-08-17T14:29:01.346Z,25.02
2022-08-17T14:31:28.213Z,25.00
2022-08-17T14:33:57.687Z,25.08
2022-08-17T14:36:24.580Z,24.86
2022-08-17T14:38:51.477Z,25.03
2022-08-17T14:41:22.170Z,25.06
2022-08-17T14:43:51.066Z,25.06
2022-08-17T14:46:41.440Z,25.29
2022-08-17T14:49:09.254Z,25.12
2022-08-17T14:51:43.627Z,25.09
2022-08-17T14:54:32.978Z,25.11
2022-08-17T14:57:22.567Z,25.17
2022-08-17T14:59:51.757Z,25.13
2022-08-17T15:02:29.994Z,25.15
2022-08-17T15:05:03.791Z,25.05
2022-08-17T15:07:31.648Z,24.82
2022-08-17T15:10:00.868Z,24.85
2022-08-17T15:12:32.713Z,24.95
2022-08-17T15:15:05.416Z,24.79
2022-08-17T15:17:44.837Z,24.80
2022-08-17T15:20:19.308Z,24.71
2022-08-17T15:22:47.823Z,24.84
2022-08-17T15:25:17.871Z,24.72
2022-08-17T15:27:44.842Z,24.61
2022-08-17T15:30:12.818Z,24.43
2022-08-17T15:32:41.314Z,24.64
2022-08-17T15:35:18.591Z,24.28
2022-08-17T15:37:45.466Z,24.24
2022-08-17T15:40:13.087Z,24.13
2022-08-17T15:42:40.022Z,23.92
2022-08-17T15:45:13.030Z,23.73
2022-08-17T15:47:43.388Z,23.68
2022-08-17T15:50:10.788Z,23.56
2022-08-17T15:52:37.747Z,23.76
2022-08-17T15:55:06.486Z,23.71
2022-08-17T15:57:33.557Z,23.76
2022-08-17T16:00:00.423Z,23.50
2022-08-17T16:03:46.740Z,23.49
2022-08-17T16:05:21.309Z,23.51
2022-08-17T16:07:52.728Z,23.56
2022-08-17T16:10:35.447Z,23.62
2022-08-17T16:13:04.420Z,23.57
2022-08-17T16:15:32.209Z,23.44
2022-08-17T16:17:59.665Z,23.57
2022-08-17T16:20:27.010Z,23.57
2022-08-17T16:22:55.438Z,23.51
2022-08-17T16:25:49.037Z,23.53
2022-08-17T16:28:15.114Z,23.48
2022-08-17T16:30:42.831Z,23.38
2022-08-17T16:33:12.999Z,23.29
2022-08-17T16:38:31.168Z,23.04
2022-08-17T16:40:59.855Z,22.89
2022-08-17T16:43:26.989Z,22.71
2022-08-17T16:45:56.788Z,22.88
2022-08-17T16:48:23.779Z,22.69
2022-08-17T16:51:03.294Z,22.66
2022-08-17T16:53:31.600Z,22.65
2022-08-17T16:55:58.409Z,22.62
2022-08-17T16:58:25.354Z,22.67
2022-08-17T17:00:52.286Z,22.60
2022-08-17T17:03:25.168Z,22.60
2022-08-17T17:06:03.634Z,22.74
2022-08-17T17:08:53.843Z,22.67
2022-08-17T17:11:30.658Z,22.47
2022-08-17T17:13:59.417Z,22.47
2022-08-17T17:16:29.315Z,22.50
2022-08-17T17:19:11.498Z,22.31
2022-08-17T17:21:51.349Z,22.38
2022-08-17T17:24:32.861Z,22.42
2022-08-17T17:27:08.628Z,22.39
2022-08-17T17:30:13.238Z,22.24
2022-08-17T17:32:52.727Z,22.31
2022-08-17T17:35:33.751Z,22.29
2022-08-17T17:38:15.512Z,22.28
2022-08-17T17:40:46.856Z,22.14
2022-08-17T17:43:38.812Z,22.06
2022-08-17T17:46:26.565Z,22.20
2022-08-17T17:52:10.311Z,22.34
2022-08-17T17:54:48.266Z,22.25
2022-08-17T17:57:15.300Z,22.24
2022-08-17T17:59:54.571Z,22.28
2022-08-17T18:02:53.155Z,22.30
2022-08-17T18:05:44.407Z,22.07
2022-08-17T18:08:11.581Z,21.92
2022-08-17T18:10:48.942Z,21.73
2022-08-17T18:13:46.593Z,21.70
2022-08-17T18:16:15.286Z,21.68
2022-08-17T18:18:46.299Z,21.65
2022-08-17T18:21:47.445Z,21.60
2022-08-17T18:24:14.851Z,21.62
2022-08-17T18:26:46.787Z,21.59
2022-08-17T18:29:32.900Z,21.57
2022-08-17T18:32:24.470Z,21.56
2022-08-17T18:35:01.360Z,21.61
2022-08-17T18:37:44.997Z,21.33
2022-08-17T18:40:17.985Z,21.50
2022-08-17T18:43:00.088Z,21.44
2022-08-17T18:45:39.659Z,21.32
2022-08-17T18:48:26.028Z,21.53
2022-08-17T18:50:58.136Z,21.29
2022-08-17T18:53:39.887Z,21.57
2022-08-17T18:56:30.998Z,21.46
2022-08-17T18:59:10.945Z,21.38
2022-08-17T19:01:59.879Z,21.28
2022-08-17T19:04:35.375Z,21.35
2022-08-17T19:07:07.482Z,21.33
2022-08-17T19:09:40.399Z,21.49
2022-08-17T19:12:11.967Z,21.57
2022-08-17T19:14:40.478Z,21.57
2022-08-17T19:17:29.316Z,21.51
2022-08-17T19:20:06.818Z,21.49
2022-08-17T19:22:56.647Z,21.55
2022-08-17T19:25:31.611Z,21.36
2022-08-17T19:28:22.400Z,21.24
2022-08-17T19:31:03.214Z,20.95
2022-08-17T19:33:34.831Z,20.96
2022-08-17T19:36:22.166Z,21.04
2022-08-17T19:38:53.847Z,21.03
2022-08-17T19:42:52.241Z,20.87
2022-08-17T19:44:49.084Z,20.87
2022-08-17T19:48:04.564Z,20.84
2022-08-17T19:50:54.113Z,20.70
2022-08-17T19:54:05.498Z,20.81
2022-08-17T19:56:54.951Z,20.70
2022-08-17T19:59:59.051Z,20.78
2022-08-17T20:03:00.108Z,20.77
2022-08-17T20:06:09.226Z,20.71
2022-08-17T20:08:39.563Z,20.67
2022-08-17T20:11:15.548Z,20.72
2022-08-17T20:13:50.011Z,20.61
2022-08-17T20:16:19.432Z,20.61
2022-08-17T20:18:59.507Z,20.46
2022-08-17T20:21:52.185Z,20.66
2022-08-17T20:24:30.310Z,20.58
2022-08-17T20:27:09.153Z,20.48
2022-08-17T20:30:17.393Z,20.47
2022-08-17T20:32:59.317Z,20.52
2022-08-17T20:35:33.393Z,20.51
2022-08-17T20:38:05.427Z,20.68
2022-08-17T20:40:57.099Z,20.35
2022-08-17T20:43:29.976Z,20.23
2022-08-17T20:46:16.171Z,20.16
2022-08-17T20:48:57.971Z,20.28
2022-08-17T20:51:24.848Z,20.12
2022-08-17T20:53:51.599Z,20.26
2022-08-17T20:56:44.793Z,20.27
2022-08-17T20:59:20.669Z,20.23
2022-08-17T21:02:03.526Z,20.35
2022-08-17T21:04:44.164Z,20.45
2022-08-17T21:07:43.640Z,20.39
2022-08-17T21:10:26.062Z,20.07
2022-08-17T21:12:55.802Z,20.19
2022-08-17T21:15:47.552Z,20.31
2022-08-17T21:18:49.719Z,20.15
2022-08-17T21:21:40.469Z,20.14
2022-08-17T21:24:34.800Z,20.09
2022-08-17T21:27:26.220Z,20.14
2022-08-17T21:30:02.241Z,20.07
2022-08-17T21:32:36.032Z,20.18
2022-08-17T21:35:11.852Z,20.20
2022-08-17T21:37:38.801Z,20.15
2022-08-17T21:40:11.649Z,20.08
2022-08-17T21:42:49.471Z,20.07
2022-08-17T21:45:28.976Z,20.05
2022-08-17T21:48:20.490Z,19.83
2022-08-17T21:51:38.734Z,19.93
2022-08-17T21:54:27.370Z,19.80
2022-08-17T21:56:54.733Z,19.77
2022-08-17T21:59:24.606Z,19.77
2022-08-17T22:01:54.657Z,19.69
2022-08-17T22:04:27.740Z,19.87
2022-08-17T22:06:57.607Z,19.92
2022-08-17T22:09:34.578Z,19.99
2022-08-17T22:12:12.301Z,20.08
2022-08-17T22:14:59.700Z,20.01
2022-08-17T22:17:37.312Z,20.03
2022-08-17T22:20:12.280Z,19.90
2022-08-17T22:23:01.456Z,20.01
2022-08-17T22:25:29.106Z,20.15
2022-08-17T22:27:59.458Z,19.91
2022-08-17T22:30:58.158Z,20.09
2022-08-17T22:33:33.199Z,20.12
2022-08-17T22:36:10.826Z,20.10
2022-08-17T22:38:38.528Z,20.11
2022-08-17T22:41:36.531Z,20.02
2022-08-17T22:44:49.858Z,20.23
2022-08-17T22:47:16.804Z,20.13
2022-08-17T22:50:00.139Z,20.09
2022-08-17T22:52:37.397Z,20.04
2022-08-17T22:55:16.138Z,20.07
2022-08-17T22:57:47.465Z,20.09
2022-08-17T23:00:33.384Z,20.09
2022-08-17T23:03:21.852Z,20.23
2022-08-17T23:06:09.341Z,20.20
2022-08-17T23:08:38.312Z,20.14
2022-08-17T23:11:06.610Z,20.13
2022-08-17T23:13:33.554Z,20.13
2022-08-17T23:16:00.528Z,20.11
2022-08-17T23:18:27.545Z,20.27
2022-08-17T23:20:54.539Z,19.98
2022-08-17T23:23:23.692Z,19.97
2022-08-17T23:25:50.794Z,20.18
2022-08-17T23:28:18.874Z,20.24
2022-08-17T23:30:45.781Z,20.13
2022-08-17T23:33:23.021Z,20.19
2022-08-17T23:35:56.067Z,20.27
2022-08-17T23:38:23.011Z,20.25
2022-08-17T23:40:53.963Z,20.30
2022-08-17T23:43:25.336Z,20.17
2022-08-17T23:45:56.690Z,20.16
2022-08-17T23:48:32.465Z,20.22
2022-08-17T23:51:26.909Z,20.15
2022-08-17T23:53:58.199Z,20.02
2022-08-17T23:56:25.149Z,20.22
2022-08-17T23:58:54.061Z,20.12
